Time;durP1;ratioP1;P1;durP2;ratioP2;P2;SDS_P1;SDS_P2;PMS_P1;PMS_P2;Temp;Humidity;BMP_temperature;BMP_pressure;BME280_temperature;BME280_humidity;BME280_pressure;Samples;Min_cycle;Max_cycle;Signal;HPM_P1;HPM_P2
2023/10/26 00:03:53;;;;;;;42.65;18.40;;;;;;;;;;5093090;28;20471;-73
2023/10/26 00:06:18;;;;;;;40.55;18.98;;;;;;;;;;5094261;28;20471;-73
2023/10/26 00:08:44;;;;;;;43.10;19.52;;;;;;;;;;5091532;28;20062;-72
2023/10/26 00:11:09;;;;;;;45.63;18.95;;;;;;;;;;5080133;28;20036;-73
2023/10/26 00:13:35;;;;;;;43.38;19.00;;;;;;;;;;5090543;28;20473;-73
2023/10/26 00:16:00;;;;;;;42.90;19.42;;;;;;;;;;5090637;28;20062;-73
2023/10/26 00:18:25;;;;;;;38.83;18.48;;;;;;;;;;5099310;28;20051;-73
2023/10/26 00:20:58;;;;;;;37.60;17.50;;;;;;;;;;5108116;28;20258;-73
2023/10/26 00:23:24;;;;;;;32.28;16.00;;;;;;;;;;5092913;28;20039;-73
2023/10/26 00:25:50;;;;;;;34.83;16.67;;;;;;;;;;5090707;28;20523;-73
2023/10/26 00:28:15;;;;;;;32.92;16.42;;;;;;;;;;5103295;28;20034;-73
2023/10/26 00:30:41;;;;;;;29.27;14.93;;;;;;;;;;5102402;28;20024;-73
2023/10/26 00:33:06;;;;;;;27.38;14.57;;;;;;;;;;5089537;28;20516;-73
2023/10/26 00:35:32;;;;;;;29.48;15.48;;;;;;;;;;5072555;28;20035;-71
2023/10/26 00:37:57;;;;;;;28.83;14.88;;;;;;;;;;5099956;28;20499;-72
2023/10/26 00:40:23;;;;;;;29.00;14.98;;;;;;;;;;5071818;28;20039;-72
2023/10/26 00:42:48;;;;;;;27.20;14.77;;;;;;;;;;5070677;28;20388;-74
2023/10/26 00:45:14;;;;;;;28.75;14.82;;;;;;;;;;5090258;28;20047;-74
2023/10/26 00:47:40;;;;;;;25.30;12.90;;;;;;;;;;5100694;28;20093;-74
2023/10/26 00:50:06;;;;;;;29.15;14.95;;;;;;;;;;5110571;28;20032;-74
2023/10/26 00:52:34;;;;;;;25.38;14.27;;;;;;;;;;5102486;28;20020;-72
2023/10/26 00:55:01;;;;;;;25.60;14.70;;;;;;;;;;5106937;28;20039;-75
2023/10/26 00:57:26;;;;;;;27.83;14.48;;;;;;;;;;5094880;28;20444;-74
2023/10/26 00:59:52;;;;;;;26.80;14.38;;;;;;;;;;5104781;28;20114;-74
2023/10/26 01:02:18;;;;;;;26.88;14.93;;;;;;;;;;5093714;28;20051;-74
2023/10/26 01:04:44;;;;;;;25.45;14.43;;;;;;;;;;5091553;28;20043;-74
2023/10/26 01:07:09;;;;;;;26.45;14.43;;;;;;;;;;5070075;28;20036;-74
2023/10/26 01:09:35;;;;;;;25.15;13.82;;;;;;;;;;5090031;28;20024;-71
2023/10/26 01:12:01;;;;;;;24.42;13.95;;;;;;;;;;5090790;28;20028;-74
2023/10/26 01:14:27;;;;;;;23.58;13.65;;;;;;;;;;5090476;28;20107;-74
2023/10/26 01:16:54;;;;;;;26.95;14.32;;;;;;;;;;5090316;28;20077;-74
2023/10/26 01:19:19;;;;;;;25.17;14.57;;;;;;;;;;5079497;28;20040;-74
2023/10/26 01:21:50;;;;;;;25.48;15.00;;;;;;;;;;5092010;28;20548;-73
2023/10/26 01:24:16;;;;;;;28.77;14.43;;;;;;;;;;5081871;28;20488;-73
2023/10/26 01:26:42;;;;;;;27.40;14.48;;;;;;;;;;5107619;28;20032;-72
2023/10/26 01:29:07;;;;;;;22.45;12.32;;;;;;;;;;5099413;28;20112;-73
2023/10/26 01:31:32;;;;;;;23.60;13.38;;;;;;;;;;5096279;28;20036;-74
2023/10/26 01:33:58;;;;;;;26.52;14.65;;;;;;;;;;5090130;28;20093;-73
2023/10/26 01:36:23;;;;;;;27.00;15.00;;;;;;;;;;5079085;28;20059;-73
2023/10/26 01:38:49;;;;;;;25.40;15.00;;;;;;;;;;5091128;28;20040;-72
2023/10/26 01:41:14;;;;;;;26.50;15.27;;;;;;;;;;5093044;28;21495;-73
2023/10/26 01:43:40;;;;;;;26.55;15.05;;;;;;;;;;5098337;28;20027;-72
2023/10/26 01:46:05;;;;;;;27.10;15.18;;;;;;;;;;5098294;28;20362;-73
2023/10/26 01:48:31;;;;;;;24.40;13.93;;;;;;;;;;5105748;28;20031;-72
2023/10/26 01:50:56;;;;;;;25.55;14.07;;;;;;;;;;5092075;28;20032;-73
2023/10/26 01:53:23;;;;;;;27.98;15.02;;;;;;;;;;5093929;28;20115;-73
2023/10/26 01:55:49;;;;;;;23.17;14.15;;;;;;;;;;5098925;28;20069;-73
2023/10/26 01:58:15;;;;;;;25.05;14.35;;;;;;;;;;5103239;28;20044;-73
2023/10/26 02:00:40;;;;;;;25.48;14.15;;;;;;;;;;5073704;28;20032;-72
2023/10/26 02:03:05;;;;;;;27.50;14.40;;;;;;;;;;5092360;28;20391;-74
2023/10/26 02:05:31;;;;;;;27.85;14.23;;;;;;;;;;5094229;28;20019;-73
2023/10/26 02:07:56;;;;;;;27.30;14.65;;;;;;;;;;5090749;28;20185;-73
2023/10/26 02:10:25;;;;;;;28.23;15.27;;;;;;;;;;5085384;28;20031;-73
2023/10/26 02:12:51;;;;;;;25.23;14.60;;;;;;;;;;5095930;28;20067;-73
2023/10/26 02:15:16;;;;;;;23.25;13.93;;;;;;;;;;5102151;28;20448;-73
2023/10/26 02:17:41;;;;;;;29.58;14.20;;;;;;;;;;5099489;28;20111;-72
2023/10/26 02:20:07;;;;;;;27.38;14.80;;;;;;;;;;5102445;28;20038;-73
2023/10/26 02:22:32;;;;;;;27.00;14.57;;;;;;;;;;5095761;28;20414;-72
2023/10/26 02:24:58;;;;;;;25.13;15.23;;;;;;;;;;5092217;28;20036;-73
2023/10/26 02:27:23;;;;;;;24.15;14.10;;;;;;;;;;5093810;28;20024;-72
2023/10/26 02:29:49;;;;;;;31.10;15.23;;;;;;;;;;5095120;28;20390;-72
2023/10/26 02:32:14;;;;;;;25.83;14.57;;;;;;;;;;5113004;28;20051;-72
2023/10/26 02:34:39;;;;;;;28.52;15.02;;;;;;;;;;5104496;28;20078;-72
2023/10/26 02:37:05;;;;;;;19.40;10.50;;;;;;;;;;5096425;28;20039;-72
2023/10/26 02:39:30;;;;;;;22.02;13.05;;;;;;;;;;5099446;28;20067;-73
2023/10/26 02:41:56;;;;;;;22.95;13.57;;;;;;;;;;5099100;28;20035;-72
2023/10/26 02:44:21;;;;;;;23.75;13.35;;;;;;;;;;5091699;28;20028;-72
2023/10/26 02:46:46;;;;;;;19.90;11.90;;;;;;;;;;5098534;28;20075;-72
2023/10/26 02:49:12;;;;;;;25.13;13.80;;;;;;;;;;5103424;28;20020;-72
2023/10/26 02:51:37;;;;;;;24.25;12.80;;;;;;;;;;5092699;28;20385;-73
2023/10/26 02:54:03;;;;;;;21.35;12.68;;;;;;;;;;5059035;28;20032;-72
2023/10/26 02:56:28;;;;;;;24.15;13.77;;;;;;;;;;5095841;28;20173;-72
2023/10/26 02:58:53;;;;;;;20.08;11.93;;;;;;;;;;5104604;28;20477;-72
2023/10/26 03:01:19;;;;;;;24.35;13.10;;;;;;;;;;5091241;28;20042;-72
2023/10/26 03:03:44;;;;;;;24.23;13.75;;;;;;;;;;5091125;28;20133;-72
2023/10/26 03:06:09;;;;;;;20.95;12.02;;;;;;;;;;5101520;28;20586;-72
2023/10/26 03:08:35;;;;;;;25.35;13.70;;;;;;;;;;5081216;28;20043;-73
2023/10/26 03:11:00;;;;;;;21.95;12.63;;;;;;;;;;5091690;28;20667;-73
2023/10/26 03:13:26;;;;;;;23.35;13.38;;;;;;;;;;5096744;28;20019;-73
2023/10/26 03:15:51;;;;;;;25.77;14.35;;;;;;;;;;5099306;28;20422;-72
2023/10/26 03:18:16;;;;;;;24.98;13.63;;;;;;;;;;5093671;28;20388;-73
2023/10/26 03:20:42;;;;;;;27.02;14.15;;;;;;;;;;5090956;28;20135;-72
2023/10/26 03:23:08;;;;;;;26.90;14.02;;;;;;;;;;5094635;28;20384;-72
2023/10/26 03:25:33;;;;;;;26.02;13.57;;;;;;;;;;5095734;28;20396;-72
2023/10/26 03:27:59;;;;;;;26.45;14.23;;;;;;;;;;5104400;28;20466;-71
2023/10/26 03:30:24;;;;;;;26.27;14.35;;;;;;;;;;5083137;28;20028;-71
2023/10/26 03:32:50;;;;;;;26.80;14.88;;;;;;;;;;5086790;28;20040;-71
2023/10/26 03:35:15;;;;;;;28.05;14.98;;;;;;;;;;5104287;28;20111;-71
2023/10/26 03:37:41;;;;;;;27.80;12.77;;;;;;;;;;5072633;28;20066;-71
2023/10/26 03:40:07;;;;;;;27.30;14.93;;;;;;;;;;5090621;28;20419;-71
2023/10/26 03:42:32;;;;;;;26.15;14.85;;;;;;;;;;5093620;28;20096;-71
2023/10/26 03:44:58;;;;;;;28.55;15.00;;;;;;;;;;5091216;28;20376;-71
2023/10/26 03:47:24;;;;;;;32.25;15.13;;;;;;;;;;5101744;28;20043;-71
2023/10/26 03:49:52;;;;;;;30.05;15.00;;;;;;;;;;5090802;28;20032;-71
2023/10/26 03:52:19;;;;;;;33.10;15.80;;;;;;;;;;5102745;28;20064;-71
2023/10/26 03:54:44;;;;;;;32.83;16.38;;;;;;;;;;5098581;28;20172;-70
2023/10/26 03:57:09;;;;;;;36.65;17.15;;;;;;;;;;5079180;28;20115;-70
2023/10/26 03:59:35;;;;;;;32.30;16.27;;;;;;;;;;5088479;28;20028;-71
2023/10/26 04:02:00;;;;;;;34.70;16.75;;;;;;;;;;5085378;28;20047;-71
2023/10/26 04:04:26;;;;;;;29.10;15.40;;;;;;;;;;5090764;28;20032;-71
2023/10/26 04:06:51;;;;;;;32.58;16.83;;;;;;;;;;5089715;28;20040;-71
2023/10/26 04:09:16;;;;;;;31.92;16.83;;;;;;;;;;5091475;28;20448;-71
2023/10/26 04:11:44;;;;;;;34.45;16.45;;;;;;;;;;5099361;28;20552;-71
2023/10/26 04:14:09;;;;;;;34.97;17.88;;;;;;;;;;5109292;28;20036;-71
2023/10/26 04:16:35;;;;;;;36.03;17.15;;;;;;;;;;5104617;28;20353;-71
2023/10/26 04:19:00;;;;;;;35.92;17.45;;;;;;;;;;5089158;28;20502;-72
2023/10/26 04:21:26;;;;;;;33.50;17.65;;;;;;;;;;5081599;28;20500;-70
2023/10/26 04:23:51;;;;;;;33.25;17.05;;;;;;;;;;5077308;28;20055;-71
2023/10/26 04:26:17;;;;;;;33.13;16.48;;;;;;;;;;5100030;28;20038;-70
2023/10/26 04:28:42;;;;;;;36.08;17.58;;;;;;;;;;5093106;28;20028;-71
2023/10/26 04:31:07;;;;;;;35.35;16.77;;;;;;;;;;5092510;28;20039;-71
2023/10/26 04:33:33;;;;;;;32.30;16.02;;;;;;;;;;5089947;28;20062;-71
2023/10/26 04:36:02;;;;;;;34.53;16.65;;;;;;;;;;5076078;28;20115;-72
2023/10/26 04:38:28;;;;;;;33.13;16.70;;;;;;;;;;5105904;28;20114;-72
2023/10/26 04:40:53;;;;;;;36.47;16.83;;;;;;;;;;5099992;28;20103;-72
2023/10/26 04:43:18;;;;;;;35.38;16.73;;;;;;;;;;5101679;28;20031;-71
2023/10/26 04:45:44;;;;;;;32.28;16.48;;;;;;;;;;5097342;28;20039;-72
2023/10/26 04:48:09;;;;;;;39.00;16.83;;;;;;;;;;5091126;28;21008;-72
2023/10/26 04:50:34;;;;;;;30.40;14.75;;;;;;;;;;5110148;28;20034;-72
2023/10/26 04:53:02;;;;;;;29.63;17.13;;;;;;;;;;5100134;28;20496;-72
2023/10/26 04:55:30;;;;;;;34.95;16.38;;;;;;;;;;5093288;28;20088;-72
2023/10/26 04:57:56;;;;;;;32.70;17.02;;;;;;;;;;5101057;28;20086;-72
2023/10/26 05:00:21;;;;;;;33.63;15.50;;;;;;;;;;5092616;28;20027;-72
2023/10/26 05:02:47;;;;;;;31.20;16.13;;;;;;;;;;5102308;28;20460;-72
2023/10/26 05:05:12;;;;;;;32.08;15.05;;;;;;;;;;5093940;28;20066;-72
2023/10/26 05:07:37;;;;;;;31.65;16.63;;;;;;;;;;5094319;28;20032;-72
2023/10/26 05:10:05;;;;;;;33.67;16.13;;;;;;;;;;5091485;28;20032;-72
2023/10/26 05:12:30;;;;;;;33.13;16.90;;;;;;;;;;5075327;28;20032;-72
2023/10/26 05:14:56;;;;;;;36.60;17.13;;;;;;;;;;5110697;28;20083;-72
2023/10/26 05:17:22;;;;;;;37.15;17.70;;;;;;;;;;5083272;28;20028;-72
2023/10/26 05:19:47;;;;;;;35.55;17.08;;;;;;;;;;5093919;28;20067;-72
2023/10/26 05:22:13;;;;;;;34.15;17.10;;;;;;;;;;5094874;28;20461;-72
2023/10/26 05:24:39;;;;;;;39.80;18.75;;;;;;;;;;5073841;28;20052;-72
2023/10/26 05:27:04;;;;;;;33.95;17.25;;;;;;;;;;5096637;28;21041;-72
2023/10/26 05:29:30;;;;;;;32.40;16.85;;;;;;;;;;5094209;28;20360;-72
2023/10/26 05:31:55;;;;;;;38.70;17.02;;;;;;;;;;5103392;28;20075;-72
2023/10/26 05:34:22;;;;;;;36.72;17.45;;;;;;;;;;5113128;28;20413;-72
2023/10/26 05:36:48;;;;;;;36.88;17.65;;;;;;;;;;5104256;28;20040;-71
2023/10/26 05:39:13;;;;;;;38.58;17.08;;;;;;;;;;5105937;28;20036;-64
2023/10/26 05:41:39;;;;;;;40.75;18.90;;;;;;;;;;5106673;28;20131;-63
2023/10/26 05:44:04;;;;;;;38.42;19.15;;;;;;;;;;5105146;28;20028;-65
2023/10/26 05:46:30;;;;;;;38.05;18.15;;;;;;;;;;5088700;28;20124;-64
2023/10/26 05:48:55;;;;;;;37.88;18.52;;;;;;;;;;5113095;28;20023;-65
2023/10/26 05:51:21;;;;;;;39.10;18.48;;;;;;;;;;5106295;28;20028;-66
2023/10/26 05:53:46;;;;;;;40.15;18.85;;;;;;;;;;5094066;28;20035;-68
2023/10/26 05:56:12;;;;;;;39.97;18.58;;;;;;;;;;5087032;28;20085;-66
2023/10/26 05:58:37;;;;;;;36.10;17.88;;;;;;;;;;5112544;28;20032;-65
2023/10/26 06:01:03;;;;;;;37.65;18.38;;;;;;;;;;5087776;28;20392;-65
2023/10/26 06:03:29;;;;;;;36.58;18.27;;;;;;;;;;5094254;28;20046;-67
2023/10/26 06:06:01;;;;;;;40.85;19.50;;;;;;;;;;5109358;28;20023;-66
2023/10/26 06:08:27;;;;;;;41.45;20.10;;;;;;;;;;5113070;28;20031;-65
2023/10/26 06:10:52;;;;;;;37.88;18.48;;;;;;;;;;5113463;28;20030;-68
2023/10/26 06:13:18;;;;;;;42.08;19.05;;;;;;;;;;5112435;28;20099;-66
2023/10/26 06:15:43;;;;;;;39.80;18.90;;;;;;;;;;5102028;28;20170;-65
2023/10/26 06:18:09;;;;;;;37.85;18.13;;;;;;;;;;5093408;28;20035;-64
2023/10/26 06:20:35;;;;;;;41.30;20.08;;;;;;;;;;5094074;28;20380;-65
2023/10/26 06:23:00;;;;;;;42.50;21.08;;;;;;;;;;5101592;28;20472;-66
2023/10/26 06:25:28;;;;;;;44.10;19.40;;;;;;;;;;5086134;28;20051;-66
2023/10/26 06:27:53;;;;;;;39.60;18.85;;;;;;;;;;5079121;28;20027;-71
2023/10/26 06:30:19;;;;;;;41.90;20.20;;;;;;;;;;5103654;28;20361;-65
2023/10/26 06:32:44;;;;;;;39.75;19.23;;;;;;;;;;5112828;28;20110;-66
2023/10/26 06:35:13;;;;;;;45.85;20.88;;;;;;;;;;5113563;28;20032;-65
2023/10/26 06:37:38;;;;;;;42.40;20.08;;;;;;;;;;5076198;28;20024;-66
2023/10/26 06:40:06;;;;;;;43.95;20.33;;;;;;;;;;5100699;28;20456;-65
2023/10/26 06:42:32;;;;;;;46.75;20.17;;;;;;;;;;5076287;28;20373;-65
2023/10/26 06:44:58;;;;;;;40.90;20.15;;;;;;;;;;5080910;28;20480;-67
2023/10/26 06:47:24;;;;;;;41.85;20.17;;;;;;;;;;5106886;28;20031;-64
2023/10/26 06:49:49;;;;;;;39.28;19.42;;;;;;;;;;5083503;28;20061;-66
2023/10/26 06:52:14;;;;;;;44.83;20.55;;;;;;;;;;5094187;28;20083;-65
2023/10/26 06:54:40;;;;;;;44.17;20.30;;;;;;;;;;5111330;28;20035;-66
2023/10/26 06:57:05;;;;;;;44.17;20.55;;;;;;;;;;5112441;28;20065;-65
2023/10/26 06:59:31;;;;;;;43.67;20.92;;;;;;;;;;5094307;28;20092;-66
2023/10/26 07:01:57;;;;;;;44.10;20.85;;;;;;;;;;5093680;28;20036;-71
2023/10/26 07:04:23;;;;;;;43.85;19.58;;;;;;;;;;5085591;28;20055;-66
2023/10/26 07:06:48;;;;;;;43.80;19.95;;;;;;;;;;5093270;28;20128;-67
2023/10/26 07:09:15;;;;;;;50.58;21.00;;;;;;;;;;5107992;28;20111;-67
2023/10/26 07:11:42;;;;;;;43.70;20.10;;;;;;;;;;5113572;28;20042;-67
2023/10/26 07:14:08;;;;;;;42.85;19.65;;;;;;;;;;5112146;28;20036;-66
2023/10/26 07:16:34;;;;;;;44.83;21.08;;;;;;;;;;5099210;28;20031;-66
2023/10/26 07:19:00;;;;;;;47.60;20.25;;;;;;;;;;5077197;28;20377;-66
2023/10/26 07:21:26;;;;;;;46.03;19.98;;;;;;;;;;5105150;28;20464;-66
2023/10/26 07:23:53;;;;;;;44.90;20.60;;;;;;;;;;5109850;28;20040;-68
2023/10/26 07:26:18;;;;;;;47.10;21.00;;;;;;;;;;5093965;28;20036;-65
2023/10/26 07:28:44;;;;;;;43.95;19.73;;;;;;;;;;5112740;28;20050;-66
2023/10/26 07:31:21;;;;;;;47.55;20.63;;;;;;;;;;5111101;28;20378;-64
2023/10/26 07:33:48;;;;;;;46.15;20.20;;;;;;;;;;5099563;28;20465;-66
2023/10/26 07:36:13;;;;;;;47.97;20.27;;;;;;;;;;5111676;28;20031;-66
2023/10/26 07:38:39;;;;;;;45.33;21.35;;;;;;;;;;5093706;28;20042;-66
2023/10/26 07:41:05;;;;;;;45.38;20.15;;;;;;;;;;5111446;28;20035;-65
2023/10/26 07:43:31;;;;;;;46.22;21.30;;;;;;;;;;5111319;28;20372;-66
2023/10/26 07:45:57;;;;;;;40.60;19.63;;;;;;;;;;5105104;28;20059;-70
2023/10/26 07:48:22;;;;;;;43.35;20.75;;;;;;;;;;5091776;28;20068;-66
2023/10/26 07:50:48;;;;;;;41.65;21.13;;;;;;;;;;5097597;28;20035;-67
2023/10/26 07:53:14;;;;;;;39.97;20.45;;;;;;;;;;5093174;28;20027;-68
2023/10/26 07:55:40;;;;;;;46.72;20.05;;;;;;;;;;5112492;28;20080;-67
2023/10/26 07:58:05;;;;;;;41.83;19.48;;;;;;;;;;5093403;28;20031;-68
2023/10/26 08:00:31;;;;;;;40.28;20.10;;;;;;;;;;5112069;28;20024;-66
2023/10/26 08:03:00;;;;;;;37.47;18.38;;;;;;;;;;5106332;28;20027;-72
2023/10/26 08:05:25;;;;;;;39.67;18.75;;;;;;;;;;5076201;28;20043;-67
2023/10/26 08:07:52;;;;;;;38.55;19.20;;;;;;;;;;5112239;28;20027;-67
2023/10/26 08:10:18;;;;;;;37.33;18.45;;;;;;;;;;5104035;28;20320;-67
2023/10/26 08:12:43;;;;;;;36.38;18.38;;;;;;;;;;5110891;28;20460;-67
2023/10/26 08:15:09;;;;;;;36.75;17.63;;;;;;;;;;5111311;28;20046;-66
2023/10/26 08:17:35;;;;;;;35.13;18.08;;;;;;;;;;5109883;28;20038;-66
2023/10/26 08:20:04;;;;;;;35.92;18.00;;;;;;;;;;5111239;28;20084;-68
2023/10/26 08:22:30;;;;;;;36.42;18.25;;;;;;;;;;5078105;28;20039;-67
2023/10/26 08:24:55;;;;;;;37.92;18.70;;;;;;;;;;5090849;28;20036;-69
2023/10/26 08:27:22;;;;;;;37.22;19.20;;;;;;;;;;5087894;28;20479;-70
2023/10/26 08:29:47;;;;;;;44.13;19.80;;;;;;;;;;5091652;28;20028;-69
2023/10/26 08:32:13;;;;;;;42.30;19.15;;;;;;;;;;5087527;28;20042;-67
2023/10/26 08:34:39;;;;;;;41.03;19.38;;;;;;;;;;5111823;28;20028;-68
2023/10/26 08:37:04;;;;;;;44.08;19.58;;;;;;;;;;5095301;28;20046;-67
2023/10/26 08:39:30;;;;;;;41.15;19.60;;;;;;;;;;5115706;28;20490;-66
2023/10/26 08:41:58;;;;;;;39.25;19.25;;;;;;;;;;5114794;28;20081;-68
2023/10/26 08:44:25;;;;;;;40.58;19.40;;;;;;;;;;5076785;28;20039;-69
2023/10/26 08:46:57;;;;;;;43.75;20.08;;;;;;;;;;5113248;28;20032;-66
2023/10/26 08:49:26;;;;;;;42.10;20.05;;;;;;;;;;5096902;28;20033;-66
2023/10/26 08:51:52;;;;;;;41.85;19.55;;;;;;;;;;5080680;28;20156;-68
2023/10/26 08:54:18;;;;;;;42.50;20.40;;;;;;;;;;5081197;28;20028;-65
2023/10/26 08:56:43;;;;;;;42.88;20.10;;;;;;;;;;5106520;28;20092;-68
2023/10/26 08:59:08;;;;;;;38.13;20.23;;;;;;;;;;5115111;28;20043;-67
2023/10/26 09:01:34;;;;;;;44.58;20.38;;;;;;;;;;5097360;28;20051;-66
2023/10/26 09:04:07;;;;;;;44.58;21.38;;;;;;;;;;5101761;28;20034;-72
2023/10/26 09:06:48;;;;;;;38.95;20.10;;;;;;;;;;5085636;28;20110;-70
2023/10/26 09:09:15;;;;;;;38.58;19.27;;;;;;;;;;5094220;28;20039;-68
2023/10/26 09:11:40;;;;;;;37.67;19.35;;;;;;;;;;5104271;28;20035;-65
2023/10/26 09:14:12;;;;;;;38.85;19.02;;;;;;;;;;5113696;28;20096;-66
2023/10/26 09:16:38;;;;;;;36.30;18.40;;;;;;;;;;5103689;28;20097;-65
2023/10/26 09:19:03;;;;;;;35.88;20.05;;;;;;;;;;5114531;28;20028;-67
2023/10/26 09:21:29;;;;;;;36.10;18.75;;;;;;;;;;5109672;28;20031;-67
2023/10/26 09:23:54;;;;;;;44.15;20.83;;;;;;;;;;5103302;28;20044;-67
2023/10/26 09:26:21;;;;;;;42.15;21.02;;;;;;;;;;5084079;28;20032;-67
2023/10/26 09:28:54;;;;;;;48.15;22.42;;;;;;;;;;5076045;28;20028;-67
2023/10/26 09:31:21;;;;;;;44.78;21.83;;;;;;;;;;5098027;28;20020;-65
2023/10/26 09:33:47;;;;;;;43.80;21.58;;;;;;;;;;5098370;28;20361;-66
2023/10/26 09:36:15;;;;;;;42.53;21.90;;;;;;;;;;5104561;28;20145;-69
2023/10/26 09:38:41;;;;;;;44.58;22.23;;;;;;;;;;5077700;28;20047;-67
2023/10/26 09:41:11;;;;;;;45.85;21.40;;;;;;;;;;5100948;28;20106;-67
2023/10/26 09:43:42;;;;;;;42.38;22.10;;;;;;;;;;5114174;28;20019;-69
2023/10/26 09:46:08;;;;;;;42.97;20.88;;;;;;;;;;5091332;28;20468;-69
2023/10/26 09:48:34;;;;;;;37.47;19.02;;;;;;;;;;5098550;28;20036;-66
2023/10/26 09:51:04;;;;;;;38.80;20.05;;;;;;;;;;5109966;28;20039;-70
2023/10/26 09:53:35;;;;;;;34.60;18.38;;;;;;;;;;5101601;28;20111;-68
2023/10/26 09:56:05;;;;;;;31.92;16.70;;;;;;;;;;5077024;28;20028;-70
2023/10/26 09:58:40;;;;;;;35.93;18.17;;;;;;;;;;5108165;28;20031;-71
2023/10/26 10:01:37;;;;;;;33.90;17.60;;;;;;;;;;5098020;28;20030;-71
2023/10/26 10:04:04;;;;;;;31.92;17.10;;;;;;;;;;5092737;28;20027;-73
2023/10/26 10:06:50;;;;;;;33.65;19.17;;;;;;;;;;5079961;28;20031;-70
2023/10/26 10:09:26;;;;;;;31.95;17.95;;;;;;;;;;5113539;28;20456;-71
2023/10/26 10:12:04;;;;;;;38.05;20.15;;;;;;;;;;5106157;28;20103;-70
2023/10/26 10:14:48;;;;;;;40.20;19.27;;;;;;;;;;5095671;28;20491;-67
2023/10/26 10:17:17;;;;;;;36.95;19.35;;;;;;;;;;5095680;28;20399;-68
2023/10/26 10:19:46;;;;;;;34.70;19.20;;;;;;;;;;5112770;28;20084;-66
2023/10/26 10:22:47;;;;;;;37.35;19.35;;;;;;;;;;5102889;28;20032;-67
2023/10/26 10:25:13;;;;;;;31.75;18.48;;;;;;;;;;5039035;28;20052;-66
2023/10/26 10:27:41;;;;;;;34.35;18.63;;;;;;;;;;5097592;28;20032;-67
2023/10/26 10:30:13;;;;;;;30.05;17.90;;;;;;;;;;5092454;28;20476;-69
2023/10/26 10:32:46;;;;;;;27.70;16.75;;;;;;;;;;5106537;28;20027;-68
2023/10/26 10:35:21;;;;;;;29.70;17.50;;;;;;;;;;5094521;28;20032;-65
2023/10/26 10:38:11;;;;;;;27.30;16.13;;;;;;;;;;5108305;28;20039;-67
2023/10/26 10:40:38;;;;;;;29.27;16.20;;;;;;;;;;5114870;28;20114;-67
2023/10/26 10:43:04;;;;;;;27.45;15.88;;;;;;;;;;5113043;28;20031;-68
2023/10/26 10:45:29;;;;;;;25.08;14.32;;;;;;;;;;5107224;28;20431;-69
2023/10/26 10:47:55;;;;;;;21.63;13.80;;;;;;;;;;5093877;28;20063;-69
2023/10/26 10:50:25;;;;;;;22.70;13.95;;;;;;;;;;5092161;28;20071;-70
2023/10/26 10:52:55;;;;;;;22.57;13.50;;;;;;;;;;5106860;28;20031;-69
2023/10/26 10:55:23;;;;;;;20.88;13.10;;;;;;;;;;5112458;28;20384;-70
2023/10/26 10:57:53;;;;;;;23.30;12.65;;;;;;;;;;5097983;28;20032;-70
2023/10/26 11:00:19;;;;;;;24.25;12.27;;;;;;;;;;5091532;28;20085;-69
2023/10/26 11:02:49;;;;;;;19.02;11.30;;;;;;;;;;5101526;28;20024;-67
2023/10/26 11:05:16;;;;;;;20.80;12.07;;;;;;;;;;5092327;28;20473;-70
2023/10/26 11:07:41;;;;;;;21.88;13.05;;;;;;;;;;5093090;28;20068;-69
2023/10/26 11:10:07;;;;;;;22.73;12.98;;;;;;;;;;5111919;28;20482;-72
2023/10/26 11:12:33;;;;;;;20.75;13.07;;;;;;;;;;5110765;28;20039;-68
2023/10/26 11:14:58;;;;;;;23.23;13.15;;;;;;;;;;5112473;28;20028;-69
2023/10/26 11:17:26;;;;;;;27.58;15.98;;;;;;;;;;5111771;28;20229;-68
2023/10/26 11:19:53;;;;;;;25.02;14.68;;;;;;;;;;5097908;28;20036;-69
2023/10/26 11:22:20;;;;;;;26.50;15.80;;;;;;;;;;5106834;28;20109;-71
2023/10/26 11:24:46;;;;;;;30.10;15.88;;;;;;;;;;5112716;28;20039;-69
2023/10/26 11:27:17;;;;;;;30.25;16.33;;;;;;;;;;5093726;28;20085;-71
2023/10/26 11:29:43;;;;;;;;;;;;;;;;;;5113438;28;20028;-68
2023/10/26 11:32:18;;;;;;;30.50;17.45;;;;;;;;;;5111737;28;20022;-72
2023/10/26 11:35:05;;;;;;;29.50;17.02;;;;;;;;;;5102547;28;20106;-69
2023/10/26 11:37:31;;;;;;;30.33;17.73;;;;;;;;;;5111896;28;20035;-66
2023/10/26 11:39:58;;;;;;;29.95;17.15;;;;;;;;;;5105542;28;20044;-69
2023/10/26 11:42:43;;;;;;;30.35;17.23;;;;;;;;;;5091184;28;20039;-70
2023/10/26 11:45:08;;;;;;;27.35;16.95;;;;;;;;;;5091503;28;20035;-75
2023/10/26 11:47:51;;;;;;;30.15;16.75;;;;;;;;;;5107888;28;20036;-69
2023/10/26 11:50:24;;;;;;;29.58;17.45;;;;;;;;;;5110758;28;20100;-68
2023/10/26 11:52:52;;;;;;;31.67;17.75;;;;;;;;;;5112223;28;20028;-66
2023/10/26 11:55:19;;;;;;;27.45;17.20;;;;;;;;;;5100728;28;20536;-69
2023/10/26 11:57:45;;;;;;;30.08;17.45;;;;;;;;;;5108903;28;20031;-66
2023/10/26 12:00:12;;;;;;;31.63;18.17;;;;;;;;;;5092925;28;20391;-69
2023/10/26 12:02:37;;;;;;;35.47;19.42;;;;;;;;;;5111152;28;20449;-69
2023/10/26 12:05:03;;;;;;;30.55;18.13;;;;;;;;;;5090574;28;20525;-70
2023/10/26 12:07:30;;;;;;;29.92;18.35;;;;;;;;;;5110649;28;20105;-69
2023/10/26 12:09:55;;;;;;;31.95;18.00;;;;;;;;;;5093225;28;20464;-69
2023/10/26 12:12:21;;;;;;;31.23;17.35;;;;;;;;;;5111177;28;20030;-67
2023/10/26 12:14:47;;;;;;;25.67;14.88;;;;;;;;;;5080255;28;20035;-67
2023/10/26 12:17:13;;;;;;;28.88;16.50;;;;;;;;;;5094008;28;20043;-68
2023/10/26 12:19:39;;;;;;;27.42;16.33;;;;;;;;;;5091061;28;20442;-66
2023/10/26 12:22:04;;;;;;;23.42;14.48;;;;;;;;;;5097711;28;20038;-70
2023/10/26 12:24:29;;;;;;;24.63;14.63;;;;;;;;;;5093437;28;20552;-68
2023/10/26 12:26:59;;;;;;;24.50;15.32;;;;;;;;;;5108281;28;20051;-69
2023/10/26 12:29:25;;;;;;;25.42;15.68;;;;;;;;;;5111030;28;20023;-70
2023/10/26 12:31:50;;;;;;;26.10;15.52;;;;;;;;;;5111595;28;20510;-71
2023/10/26 12:34:16;;;;;;;29.15;16.23;;;;;;;;;;5106696;28;20064;-68
2023/10/26 12:36:41;;;;;;;24.83;15.35;;;;;;;;;;5099370;28;20038;-66
2023/10/26 12:39:07;;;;;;;25.25;15.80;;;;;;;;;;5080646;28;20071;-70
2023/10/26 12:41:32;;;;;;;27.80;15.20;;;;;;;;;;5094560;28;20516;-68
2023/10/26 12:43:58;;;;;;;25.45;15.18;;;;;;;;;;5111304;28;20027;-68
2023/10/26 12:46:23;;;;;;;28.35;16.40;;;;;;;;;;5109930;28;20430;-68
2023/10/26 12:48:48;;;;;;;26.73;16.73;;;;;;;;;;5093715;28;20047;-67
2023/10/26 12:51:14;;;;;;;28.08;16.55;;;;;;;;;;5091851;28;20032;-69
2023/10/26 12:53:40;;;;;;;27.50;16.27;;;;;;;;;;5092611;28;20051;-68
2023/10/26 12:56:06;;;;;;;28.25;16.92;;;;;;;;;;5105085;28;20086;-66
2023/10/26 12:58:32;;;;;;;25.30;15.70;;;;;;;;;;5107810;28;20190;-69
2023/10/26 13:00:58;;;;;;;24.75;14.80;;;;;;;;;;5097789;28;20070;-71
2023/10/26 13:03:23;;;;;;;26.60;15.95;;;;;;;;;;5087196;28;20370;-74
2023/10/26 13:05:48;;;;;;;24.90;14.40;;;;;;;;;;5091081;28;20071;-75
2023/10/26 13:08:14;;;;;;;28.23;15.75;;;;;;;;;;5103787;28;20059;-75
2023/10/26 13:10:39;;;;;;;26.20;15.73;;;;;;;;;;5101299;28;20066;-74
2023/10/26 13:13:05;;;;;;;27.85;15.73;;;;;;;;;;5085367;28;20031;-71
2023/10/26 13:15:30;;;;;;;27.88;16.33;;;;;;;;;;5110642;28;20027;-73
2023/10/26 13:17:56;;;;;;;24.92;14.70;;;;;;;;;;5092895;28;20484;-71
2023/10/26 13:20:22;;;;;;;24.73;15.05;;;;;;;;;;5106487;28;20115;-70
2023/10/26 13:22:49;;;;;;;25.08;14.07;;;;;;;;;;5086744;28;20188;-69
2023/10/26 13:25:14;;;;;;;26.60;15.05;;;;;;;;;;5114565;28;20163;-73
2023/10/26 13:27:40;;;;;;;25.30;14.82;;;;;;;;;;5106466;28;20633;-67
2023/10/26 13:30:06;;;;;;;24.52;14.93;;;;;;;;;;5111610;28;20047;-65
2023/10/26 13:32:31;;;;;;;21.77;13.50;;;;;;;;;;5112428;28;20023;-67
2023/10/26 13:34:57;;;;;;;21.73;13.60;;;;;;;;;;5116712;28;20153;-65
2023/10/26 13:37:22;;;;;;;20.42;13.60;;;;;;;;;;5116038;28;20478;-71
2023/10/26 13:39:47;;;;;;;21.95;12.65;;;;;;;;;;5107391;28;20476;-69
2023/10/26 13:42:13;;;;;;;22.10;12.90;;;;;;;;;;5112330;28;20024;-69
2023/10/26 13:44:38;;;;;;;21.80;13.55;;;;;;;;;;5113449;28;20032;-69
2023/10/26 13:47:04;;;;;;;18.77;12.93;;;;;;;;;;5090302;28;20449;-73
2023/10/26 13:49:29;;;;;;;19.30;12.20;;;;;;;;;;5093557;28;20081;-69
2023/10/26 13:51:54;;;;;;;19.88;11.05;;;;;;;;;;5094362;28;20035;-68
2023/10/26 13:54:21;;;;;;;15.93;10.63;;;;;;;;;;5094434;28;20107;-68
2023/10/26 13:56:46;;;;;;;17.52;11.20;;;;;;;;;;5094267;28;20028;-67
2023/10/26 13:59:12;;;;;;;16.58;10.82;;;;;;;;;;5094394;28;20042;-69
2023/10/26 14:01:37;;;;;;;16.27;10.05;;;;;;;;;;5110044;28;20085;-69
2023/10/26 14:04:03;;;;;;;16.55;10.73;;;;;;;;;;5103269;28;20027;-70
2023/10/26 14:06:28;;;;;;;17.42;11.45;;;;;;;;;;5108501;28;20032;-68
2023/10/26 14:08:58;;;;;;;19.95;12.00;;;;;;;;;;5094551;28;20024;-68
2023/10/26 14:11:25;;;;;;;19.52;11.27;;;;;;;;;;5082120;28;20031;-67
2023/10/26 14:13:51;;;;;;;18.17;11.30;;;;;;;;;;5115133;28;20032;-71
2023/10/26 14:16:19;;;;;;;18.67;11.38;;;;;;;;;;5084988;28;20035;-73
2023/10/26 14:18:45;;;;;;;17.02;10.73;;;;;;;;;;5112431;28;20032;-70